Time;durP1;ratioP1;P1;durP2;ratioP2;P2;SDS_P1;SDS_P2;PMS_P1;PMS_P2;Temp;Humidity;BMP_temperature;BMP_pressure;BME280_temperature;BME280_humidity;BME280_pressure;Samples;Min_cycle;Max_cycle;Signal;HPM_P1;HPM_P2
2023/09/05 00:00:26;;;;;;;4.70;2.70;;;;;;;21.37;87.26;96803.34;6190446;23;19996;-81
2023/09/05 00:02:51;;;;;;;4.55;2.40;;;;;;;21.45;88.06;96794.25;6191053;23;20007;-83
2023/09/05 00:05:18;;;;;;;5.38;2.80;;;;;;;21.32;88.58;96804.97;6215704;23;20015;-81
2023/09/05 00:07:43;;;;;;;4.50;2.40;;;;;;;21.15;89.69;96807.31;6189620;23;20020;-81
2023/09/05 00:10:13;;;;;;;6.40;2.92;;;;;;;21.21;89.87;96803.78;6214576;23;20016;-81
2023/09/05 00:12:41;;;;;;;5.35;2.53;;;;;;;21.44;88.40;96797.16;6189806;23;20004;-82
2023/09/05 00:15:12;;;;;;;5.30;2.53;;;;;;;21.21;90.94;96803.78;6190512;23;20019;-81
2023/09/05 00:17:39;;;;;;;5.60;2.30;;;;;;;21.31;90.22;96803.34;6215334;23;20371;-81
2023/09/05 00:20:05;;;;;;;4.75;2.15;;;;;;;21.48;90.21;96803.69;6190640;23;20008;-82
2023/09/05 00:22:31;;;;;;;5.53;2.90;;;;;;;21.26;92.46;96795.97;6190659;23;20057;-81
2023/09/05 00:24:56;;;;;;;4.40;2.53;;;;;;;21.03;95.35;96798.31;6216434;23;20012;-81
2023/09/05 00:27:22;;;;;;;3.78;1.95;;;;;;;21.16;93.92;96801.78;6190502;23;20004;-82
2023/09/05 00:29:48;;;;;;;4.57;2.33;;;;;;;21.09;93.83;96806.31;6215200;23;20008;-81
2023/09/05 00:32:14;;;;;;;4.50;2.47;;;;;;;21.37;93.08;96794.50;6215305;23;20000;-82
2023/09/05 00:34:39;;;;;;;5.07;2.72;;;;;;;21.13;94.75;96812.06;6190555;23;20405;-81
2023/09/05 00:37:22;;;;;;;5.15;2.55;;;;;;;21.45;93.46;96804.94;6190092;23;20000;-81
2023/09/05 00:39:48;;;;;;;7.43;3.22;;;;;;;21.34;93.43;96790.41;6190874;23;20047;-81
2023/09/05 00:42:15;;;;;;;3.88;2.25;;;;;;;21.30;93.86;96791.84;6215063;23;20008;-81
2023/09/05 00:44:41;;;;;;;4.25;2.28;;;;;;;21.12;95.70;96789.84;6191112;23;20011;-81
2023/09/05 00:47:07;;;;;;;3.78;2.42;;;;;;;21.15;97.54;96792.09;6190028;23;20012;-82
2023/09/05 00:49:39;;;;;;;5.65;2.55;;;;;;;21.17;96.20;96784.69;6190303;23;20429;-81
2023/09/05 00:52:07;;;;;;;7.53;2.97;;;;;;;21.40;96.33;96789.53;6215733;23;20062;-81
2023/09/05 00:54:37;;;;;;;4.03;2.22;;;;;;;21.29;96.51;96784.81;6215272;23;20004;-81
2023/09/05 00:57:03;;;;;;;5.35;2.60;;;;;;;21.25;98.31;96788.97;6242061;23;20058;-81
2023/09/05 00:59:28;;;;;;;6.60;3.20;;;;;;;21.50;96.73;96770.34;6189783;23;20008;-81
2023/09/05 01:01:55;;;;;;;5.35;2.67;;;;;;;21.12;99.13;96779.13;6214975;23;20098;-82
2023/09/05 01:05:08;;;;;;;5.65;2.53;;;;;;;20.89;100.00;96786.84;6187694;23;20605;-81
2023/09/05 01:08:07;;;;;;;5.60;2.80;;;;;;;20.92;100.00;96784.59;6199224;23;20559;-81
2023/09/05 01:10:52;;;;;;;4.65;2.35;;;;;;;20.83;100.00;96780.50;6161079;23;20100;-81
2023/09/05 01:13:24;;;;;;;5.20;2.30;;;;;;;20.78;100.00;96787.50;6129280;23;20063;-81
2023/09/05 01:15:52;;;;;;;4.28;2.20;;;;;;;21.11;100.00;96774.00;6129102;23;20044;-81
2023/09/05 01:18:18;;;;;;;5.43;2.80;;;;;;;21.06;100.00;96782.69;6129679;23;20012;-82
2023/09/05 01:20:54;;;;;;;6.65;2.70;;;;;;;20.73;100.00;96785.47;6128025;23;20001;-81
2023/09/05 01:23:28;;;;;;;4.32;2.60;;;;;;;20.82;100.00;96778.84;6129677;23;20142;-82
2023/09/05 01:25:55;;;;;;;3.72;2.03;;;;;;;20.97;100.00;96791.16;6128780;23;20033;-82
2023/09/05 01:28:23;;;;;;;4.32;2.25;;;;;;;21.40;100.00;96789.53;6130135;23;20012;-82
2023/09/05 01:30:49;;;;;;;5.13;2.67;;;;;;;21.08;100.00;96793.97;6129232;23;20043;-82
2023/09/05 01:33:17;;;;;;;3.50;1.92;;;;;;;21.08;100.00;96785.13;6129484;23;20349;-82
2023/09/05 01:35:44;;;;;;;4.55;2.63;;;;;;;21.15;100.00;96781.38;6179102;23;20056;-81
2023/09/05 01:38:13;;;;;;;5.88;2.53;;;;;;;21.18;100.00;96785.50;6152997;23;20045;-82
2023/09/05 01:40:39;;;;;;;5.70;2.63;;;;;;;21.02;100.00;96783.28;6129450;23;20514;-81
2023/09/05 01:43:04;;;;;;;4.47;2.30;;;;;;;21.21;100.00;96774.38;6129251;23;20005;-82
2023/09/05 01:45:31;;;;;;;4.93;2.75;;;;;;;20.64;100.00;96771.50;6155908;23;20025;-82
2023/09/05 01:47:57;;;;;;;4.57;2.60;;;;;;;20.67;100.00;96780.94;6131075;23;20019;-81
2023/09/05 01:50:23;;;;;;;4.80;2.38;;;;;;;20.91;100.00;96771.41;6131969;23;20012;-82
2023/09/05 01:52:48;;;;;;;4.55;2.20;;;;;;;20.85;100.00;96765.03;6130263;23;20334;-82
2023/09/05 01:55:14;;;;;;;3.53;2.15;;;;;;;20.71;100.00;96771.47;6154890;23;20024;-81
2023/09/05 01:57:39;;;;;;;5.53;2.55;;;;;;;20.93;100.00;96772.84;6131355;23;20508;-81
2023/09/05 02:00:06;;;;;;;5.32;2.70;;;;;;;21.07;100.00;96770.13;6131786;23;20385;-82
2023/09/05 02:02:39;;;;;;;6.10;2.33;;;;;;;20.81;100.00;96771.84;6160224;23;20005;-82
2023/09/05 02:05:06;;;;;;;5.10;2.50;;;;;;;20.35;100.00;96787.94;6134350;23;20041;-82
2023/09/05 02:07:32;;;;;;;6.65;2.63;;;;;;;20.94;100.00;96776.34;6133802;23;20009;-82
2023/09/05 02:09:57;;;;;;;5.30;2.55;;;;;;;20.78;100.00;96769.59;6134387;23;20004;-82
2023/09/05 02:12:23;;;;;;;5.25;2.42;;;;;;;20.85;100.00;96777.59;6134230;23;20016;-82
2023/09/05 02:14:48;;;;;;;4.72;2.13;;;;;;;20.78;100.00;96774.94;6159961;23;20005;-81
2023/09/05 02:17:20;;;;;;;4.82;2.42;;;;;;;20.69;100.00;96773.53;6133603;23;20063;-83
2023/09/05 02:19:46;;;;;;;7.18;2.83;;;;;;;20.64;100.00;96776.03;6134024;23;20087;-82
2023/09/05 02:22:12;;;;;;;5.50;2.78;;;;;;;20.28;100.00;96777.28;6133624;23;20011;-82
2023/09/05 02:24:37;;;;;;;4.93;2.47;;;;;;;20.63;100.00;96780.56;6134293;23;20476;-82
2023/09/05 02:27:03;;;;;;;5.20;3.05;;;;;;;20.68;100.00;96774.56;6134195;23;20013;-82
2023/09/05 02:29:29;;;;;;;7.00;2.80;;;;;;;20.09;100.00;96778.13;6159090;23;20060;-82
2023/09/05 02:31:55;;;;;;;4.28;2.45;;;;;;;20.15;100.00;96782.63;6134798;23;20381;-81
2023/09/05 02:34:20;;;;;;;5.20;2.75;;;;;;;19.92;100.00;96775.88;6142804;23;20433;-82
2023/09/05 02:36:46;;;;;;;6.07;2.83;;;;;;;20.11;100.00;96776.88;6132623;23;20019;-81
2023/09/05 02:39:12;;;;;;;5.22;2.60;;;;;;;20.25;100.00;96773.19;6133242;23;20063;-82
2023/09/05 02:41:37;;;;;;;5.03;2.67;;;;;;;20.18;100.00;96767.00;6133908;23;20063;-82
2023/09/05 02:44:03;;;;;;;6.28;2.65;;;;;;;20.07;100.00;96769.50;6134540;23;20001;-82
2023/09/05 02:46:28;;;;;;;5.47;2.65;;;;;;;20.33;100.00;96772.16;6154203;23;20012;-82
2023/09/05 02:48:54;;;;;;;5.88;2.60;;;;;;;19.93;100.00;96771.34;6133462;23;20011;-82
2023/09/05 02:51:19;;;;;;;5.07;2.70;;;;;;;20.05;100.00;96769.69;6132600;23;20005;-82
2023/09/05 02:53:56;;;;;;;5.45;2.80;;;;;;;20.39;100.00;96771.31;6132995;23;20016;-82
2023/09/05 02:56:22;;;;;;;5.20;2.47;;;;;;;20.07;100.00;96769.50;6132476;23;20438;-82
2023/09/05 02:58:51;;;;;;;4.65;2.83;;;;;;;20.02;100.00;96768.25;6158284;23;20005;-82
2023/09/05 03:01:16;;;;;;;7.00;3.08;;;;;;;20.02;100.00;96770.94;6132631;23;20005;-82
2023/09/05 03:03:43;;;;;;;5.80;2.77;;;;;;;20.07;100.00;96775.66;6130898;23;20005;-81
2023/09/05 03:06:14;;;;;;;8.03;2.97;;;;;;;20.07;100.00;96775.66;6129610;23;20082;-81
2023/09/05 03:08:42;;;;;;;5.68;3.25;;;;;;;20.14;100.00;96781.00;6129679;23;20374;-82
2023/09/05 03:11:08;;;;;;;6.15;3.10;;;;;;;20.27;100.00;96775.63;6130281;23;20012;-82
2023/09/05 03:13:34;;;;;;;6.60;3.25;;;;;;;19.99;100.00;96776.69;6130350;23;20017;-82
2023/09/05 03:16:00;;;;;;;6.00;3.15;;;;;;;20.09;100.00;96772.78;6153855;23;20059;-82
2023/09/05 03:18:25;;;;;;;6.95;3.70;;;;;;;20.42;100.00;96768.22;6129961;23;20004;-81
2023/09/05 03:20:51;;;;;;;4.67;2.60;;;;;;;20.22;100.00;96773.59;6153953;23;20005;-82
2023/09/05 03:23:18;;;;;;;5.33;3.20;;;;;;;20.14;100.00;96773.78;6129351;23;20012;-82
2023/09/05 03:25:43;;;;;;;5.18;3.03;;;;;;;20.11;100.00;96766.19;6130226;23;20005;-82
2023/09/05 03:28:13;;;;;;;13.50;4.93;;;;;;;20.11;100.00;96776.06;6130529;23;20023;-81
2023/09/05 03:30:41;;;;;;;9.05;3.38;;;;;;;20.13;100.00;96769.50;6129728;23;20012;-80
2023/09/05 03:33:07;;;;;;;122.78;97.53;;;;;;;19.99;100.00;96773.19;6130529;23;20005;-80
2023/09/05 03:35:33;;;;;;;9.43;5.50;;;;;;;19.84;100.00;96781.38;6129882;23;20493;-80
2023/09/05 03:38:00;;;;;;;6.40;3.50;;;;;;;19.62;100.00;96788.72;6129749;23;20013;-79
2023/09/05 03:40:26;;;;;;;6.18;3.00;;;;;;;19.44;100.00;96780.47;6155063;23;20001;-83
2023/09/05 03:42:58;;;;;;;7.13;3.55;;;;;;;19.32;100.00;96785.59;6130018;23;19997;-82
2023/09/05 03:45:23;;;;;;;5.65;3.38;;;;;;;19.39;100.00;96783.75;6130820;23;20001;-81
2023/09/05 03:47:49;;;;;;;5.30;3.20;;;;;;;19.79;100.00;96781.19;6129939;23;20016;-81
2023/09/05 03:50:17;;;;;;;6.03;3.25;;;;;;;18.93;100.00;96788.91;6154437;23;20496;-81
2023/09/05 03:52:43;;;;;;;7.77;3.33;;;;;;;19.21;100.00;96786.97;6129011;23;20603;-81
2023/09/05 03:55:09;;;;;;;5.57;2.97;;;;;;;19.77;100.00;96788.56;6129032;23;20079;-81
2023/09/05 03:57:35;;;;;;;5.00;2.92;;;;;;;19.64;100.00;96780.53;6154602;23;20460;-81
2023/09/05 04:00:00;;;;;;;4.70;2.73;;;;;;;19.81;100.00;96780.97;6129643;23;20009;-81
2023/09/05 04:02:26;;;;;;;6.03;3.42;;;;;;;19.82;100.00;96778.13;6129971;23;20009;-82
2023/09/05 04:04:55;;;;;;;5.38;2.85;;;;;;;19.78;100.00;96771.53;6154031;23;20001;-81
2023/09/05 04:07:22;;;;;;;4.53;2.85;;;;;;;19.22;100.00;96766.47;6129175;23;20393;-81
2023/09/05 04:09:48;;;;;;;6.47;3.30;;;;;;;19.56;100.00;96762.84;6153741;23;20068;-80
2023/09/05 04:12:14;;;;;;;5.70;2.90;;;;;;;19.15;100.00;96771.78;6129954;23;20035;-82
2023/09/05 04:14:40;;;;;;;6.50;3.33;;;;;;;19.15;100.00;96773.59;6129914;23;20009;-81
2023/09/05 04:17:06;;;;;;;4.83;3.00;;;;;;;19.44;100.00;96767.13;6153560;23;20001;-82
2023/09/05 04:19:31;;;;;;;6.90;3.33;;;;;;;19.46;100.00;96773.91;6129888;23;20009;-81
2023/09/05 04:21:57;;;;;;;4.93;2.80;;;;;;;19.25;100.00;96771.41;6129161;23;20054;-82
2023/09/05 04:24:22;;;;;;;5.23;3.20;;;;;;;19.07;100.00;96774.59;6130027;23;20005;-81
2023/09/05 04:26:48;;;;;;;7.50;3.53;;;;;;;19.38;100.00;96766.09;6129284;23;20437;-81
2023/09/05 04:29:13;;;;;;;6.23;2.80;;;;;;;19.04;100.00;96773.16;6129835;23;20036;-81
2023/09/05 04:31:39;;;;;;;7.10;3.30;;;;;;;18.72;100.00;96777.34;6129307;23;20032;-81
2023/09/05 04:34:04;;;;;;;7.67;3.70;;;;;;;19.10;100.00;96768.06;6130108;23;20027;-81
2023/09/05 04:36:30;;;;;;;6.23;3.83;;;;;;;18.64;100.00;96769.47;6153269;23;20438;-81
2023/09/05 04:38:55;;;;;;;4.33;2.47;;;;;;;18.59;100.00;96772.72;6129293;23;20056;-81
2023/09/05 04:41:21;;;;;;;6.00;3.20;;;;;;;18.58;100.00;96770.28;6155141;23;20052;-81
2023/09/05 04:43:47;;;;;;;6.83;3.67;;;;;;;18.87;100.00;96771.03;6129476;23;20008;-81
2023/09/05 04:46:14;;;;;;;8.07;3.17;;;;;;;19.02;100.00;96772.56;6152029;23;20394;-81
2023/09/05 04:48:39;;;;;;;6.03;3.57;;;;;;;19.36;100.00;96776.16;6182171;23;20076;-82
2023/09/05 04:51:05;;;;;;;6.50;3.80;;;;;;;19.15;100.00;96782.44;6154300;23;20622;-81
2023/09/05 04:53:31;;;;;;;6.77;3.87;;;;;;;18.76;100.00;96781.25;6154120;23;20013;-81
2023/09/05 04:56:00;;;;;;;8.77;3.50;;;;;;;18.82;100.00;96784.97;6153424;23;20001;-82
2023/09/05 04:58:29;;;;;;;7.23;2.93;;;;;;;19.09;100.00;96783.25;6154228;23;19997;-82
2023/09/05 05:01:02;;;;;;;5.77;3.07;;;;;;;19.07;100.00;96796.75;6129218;23;20035;-81
2023/09/05 05:03:32;;;;;;;5.45;3.10;;;;;;;18.99;100.00;96796.94;6130105;23;20009;-82
2023/09/05 05:05:58;;;;;;;7.07;3.17;;;;;;;19.26;100.00;96799.72;6128074;23;20013;-81
2023/09/05 05:08:24;;;;;;;6.93;3.43;;;;;;;19.47;100.00;96801.41;6129406;23;20080;-81
2023/09/05 05:10:49;;;;;;;5.93;3.10;;;;;;;19.46;100.00;96800.59;6127825;23;20001;-81
2023/09/05 05:13:16;;;;;;;6.50;3.20;;;;;;;19.28;100.00;96801.16;6128850;23;20047;-82
2023/09/05 05:15:54;;;;;;;4.93;3.27;;;;;;;19.64;100.00;96802.69;6128326;23;20390;-82
2023/09/05 05:18:19;;;;;;;11.00;5.87;;;;;;;19.58;100.00;96800.00;6130263;23;20001;-82
2023/09/05 05:20:46;;;;;;;7.57;4.17;;;;;;;19.65;100.00;96800.84;6131501;23;19997;-81
2023/09/05 05:23:11;;;;;;;6.97;3.47;;;;;;;19.67;100.00;96796.16;6130439;23;20005;-81
2023/09/05 05:25:37;;;;;;;5.57;3.30;;;;;;;20.27;100.00;96788.19;6130980;23;20448;-81
2023/09/05 05:28:04;;;;;;;4.90;2.83;;;;;;;20.53;100.00;96782.00;6131078;23;20384;-82
2023/09/05 05:30:35;;;;;;;4.77;2.87;;;;;;;20.50;100.00;96791.22;6131410;23;20528;-82
2023/09/05 05:33:01;;;;;;;5.23;2.80;;;;;;;20.64;100.00;96781.38;6181199;23;20005;-82
2023/09/05 05:35:26;;;;;;;5.40;2.63;;;;;;;20.91;100.00;96784.78;6155539;23;20476;-83
2023/09/05 05:37:52;;;;;;;6.38;3.03;;;;;;;20.98;100.00;96774.88;6129968;23;20005;-83
2023/09/05 05:40:18;;;;;;;5.93;3.03;;;;;;;20.52;100.00;96785.69;6155997;23;20082;-83
2023/09/05 05:42:44;;;;;;;5.35;2.90;;;;;;;20.88;100.00;96782.53;6131370;23;20004;-82
2023/09/05 05:45:10;;;;;;;6.20;3.28;;;;;;;21.11;100.00;96780.19;6155312;23;20434;-83
2023/09/05 05:47:35;;;;;;;8.88;4.07;;;;;;;22.21;100.00;96787.16;6155195;23;20008;-83
2023/09/05 05:50:01;;;;;;;6.82;3.85;;;;;;;21.74;100.00;96787.50;6131161;23;20001;-83
2023/09/05 05:52:27;;;;;;;5.65;3.10;;;;;;;21.44;100.00;96784.59;6130226;23;20449;-82
2023/09/05 05:54:53;;;;;;;5.63;2.92;;;;;;;21.57;100.00;96789.03;6181808;23;20005;-83
2023/09/05 05:57:18;;;;;;;4.95;2.92;;;;;;;22.10;100.00;96786.81;6129842;23;20001;-83
2023/09/05 05:59:44;;;;;;;7.15;2.97;;;;;;;22.87;100.00;96777.63;6131447;23;20009;-83
2023/09/05 06:02:10;;;;;;;5.72;3.08;;;;;;;23.52;100.00;96772.53;6155595;23;20009;-83
2023/09/05 06:04:35;;;;;;;6.28;3.05;;;;;;;22.85;100.00;96772.50;6131522;23;20067;-83
2023/09/05 06:07:01;;;;;;;4.90;2.85;;;;;;;23.58;100.00;96768.13;6153777;23;20004;-83
2023/09/05 06:09:27;;;;;;;5.18;3.03;;;;;;;23.18;100.00;96774.03;6130717;23;20059;-82
2023/09/05 06:11:53;;;;;;;4.75;2.67;;;;;;;23.12;100.00;96775.72;6154820;23;20448;-83
2023/09/05 06:14:18;;;;;;;5.00;2.67;;;;;;;22.78;100.00;96775.25;6130773;23;20009;-83
2023/09/05 06:16:46;;;;;;;6.85;2.90;;;;;;;23.20;100.00;96767.34;6129569;23;20071;-82
2023/09/05 06:19:12;;;;;;;5.50;2.78;;;;;;;24.43;100.00;96757.09;6131002;23;20350;-83
2023/09/05 06:21:38;;;;;;;10.50;3.50;;;;;;;23.43;100.00;96757.78;6154894;23;20361;-83
2023/09/05 06:24:04;;;;;;;5.53;2.60;;;;;;;24.85;97.44;96762.31;6130591;23;20005;-83
2023/09/05 06:26:29;;;;;;;5.68;3.03;;;;;;;24.51;98.83;96758.59;6130546;23;20039;-83
2023/09/05 06:28:55;;;;;;;6.95;2.85;;;;;;;24.64;97.98;96764.53;6130741;23;20493;-83
2023/09/05 06:31:21;;;;;;;6.80;2.92;;;;;;;24.04;98.66;96759.34;6129577;23;20001;-83
2023/09/05 06:33:47;;;;;;;8.60;2.95;;;;;;;24.84;97.60;96760.66;6131049;23;20008;-83
2023/09/05 06:36:12;;;;;;;4.82;2.58;;;;;;;25.79;84.78;96764.69;6130317;23;20011;-82
2023/09/05 06:38:39;;;;;;;6.07;2.78;;;;;;;25.21;88.48;96763.06;6153763;23;20346;-83
2023/09/05 06:41:09;;;;;;;8.05;2.80;;;;;;;24.92;89.00;96771.88;6127044;23;20005;-83
2023/09/05 06:43:35;;;;;;;3.80;2.30;;;;;;;24.87;90.57;96763.69;6128329;23;20008;-83
2023/09/05 06:46:02;;;;;;;4.55;2.30;;;;;;;24.92;92.42;96761.13;6150771;23;20350;-83
2023/09/05 06:48:29;;;;;;;6.45;2.88;;;;;;;25.69;85.84;96765.31;6128095;23;20521;-83
2023/09/05 06:50:56;;;;;;;5.85;2.33;;;;;;;26.52;77.49;96765.63;6153744;23;20032;-82
2023/09/05 06:53:22;;;;;;;3.70;2.10;;;;;;;25.24;87.79;96758.00;6130959;23;20036;-83
2023/09/05 06:55:48;;;;;;;4.22;2.08;;;;;;;26.49;75.83;96758.88;6180923;23;20001;-83
2023/09/05 06:58:16;;;;;;;6.30;2.60;;;;;;;26.68;73.09;96767.47;6131376;23;20004;-83
2023/09/05 07:00:42;;;;;;;4.68;1.90;;;;;;;25.48;83.02;96764.13;6131245;23;20058;-83
2023/09/05 07:03:07;;;;;;;4.60;2.03;;;;;;;26.24;78.91;96764.66;6130700;23;20005;-83
2023/09/05 07:05:40;;;;;;;5.03;2.40;;;;;;;25.31;77.01;96764.06;6155022;23;20003;-82
2023/09/05 07:08:06;;;;;;;;;;;;;;;25.43;80.16;96761.34;6130381;23;19997;-83
2023/09/05 07:10:31;;;;;;;3.45;2.03;;;;;;;25.56;77.27;96769.13;6130355;23;20007;-83
2023/09/05 07:12:57;;;;;;;6.38;2.28;;;;;;;26.31;71.19;96761.78;6156320;23;20479;-83
2023/09/05 07:15:22;;;;;;;4.32;2.45;;;;;;;25.79;70.81;96764.69;6129410;23;20008;-82
2023/09/05 07:17:49;;;;;;;4.60;2.10;;;;;;;25.47;75.55;96770.56;6153957;23;20001;-81
2023/09/05 07:20:14;;;;;;;4.03;2.10;;;;;;;25.98;73.43;96771.50;6154969;23;20023;-81
2023/09/05 07:22:40;;;;;;;5.00;2.25;;;;;;;24.95;76.77;96773.28;6129890;23;20036;-81
2023/09/05 07:25:06;;;;;;;5.13;2.00;;;;;;;24.57;82.82;96774.59;6129289;23;20005;-82
2023/09/05 07:27:32;;;;;;;5.20;2.00;;;;;;;25.16;79.87;96759.22;6153799;23;20013;-83
2023/09/05 07:29:58;;;;;;;5.88;2.33;;;;;;;25.34;79.76;96762.78;6130743;23;20031;-82
2023/09/05 07:32:23;;;;;;;5.57;1.90;;;;;;;25.42;78.90;96775.88;6154713;23;20005;-82
2023/09/05 07:34:49;;;;;;;5.63;2.40;;;;;;;26.18;72.18;96767.50;6181666;23;20031;-82
2023/09/05 07:37:16;;;;;;;5.03;2.00;;;;;;;25.25;71.09;96781.19;6128498;23;20008;-82
2023/09/05 07:39:47;;;;;;;4.70;2.00;;;;;;;24.80;75.64;96791.78;6154657;23;20579;-82
2023/09/05 07:42:12;;;;;;;4.40;2.00;;;;;;;26.17;70.73;96799.03;6129347;23;20001;-82
2023/09/05 07:44:38;;;;;;;6.88;2.38;;;;;;;25.38;73.76;96794.34;6130793;23;20012;-81
2023/09/05 07:47:03;;;;;;;3.97;2.33;;;;;;;25.24;74.91;96808.34;6128890;23;20063;-81
2023/09/05 07:49:31;;;;;;;4.53;1.98;;;;;;;25.66;74.50;96798.13;6130399;23;20004;-82
2023/09/05 07:51:57;;;;;;;6.40;2.33;;;;;;;25.28;74.19;96796.03;6129030;23;20566;-81
2023/09/05 07:54:25;;;;;;;3.60;2.25;;;;;;;25.91;72.48;96799.66;6155205;23;20027;-82
2023/09/05 07:56:51;;;;;;;6.05;2.15;;;;;;;25.63;71.12;96804.81;6128906;23;19997;-82
2023/09/05 07:59:16;;;;;;;6.43;2.03;;;;;;;24.99;76.46;96795.97;6129456;23;20104;-82
2023/09/05 08:01:42;;;;;;;4.70;2.35;;;;;;;26.03;68.33;96809.31;6153916;23;20009;-81
2023/09/05 08:04:07;;;;;;;4.63;2.17;;;;;;;25.65;70.85;96804.56;6154473;23;20023;-82
2023/09/05 08:06:33;;;;;;;4.25;2.38;;;;;;;25.17;75.30;96808.47;6153332;23;20382;-82
2023/09/05 08:08:59;;;;;;;3.88;2.00;;;;;;;25.19;75.93;96808.25;6153534;23;20012;-82
2023/09/05 08:11:25;;;;;;;4.70;1.80;;;;;;;25.95;69.83;96798.13;6154309;23;20017;-82
2023/09/05 08:13:51;;;;;;;4.35;1.80;;;;;;;26.13;69.54;96803.28;6129483;23;20662;-81
2023/09/05 08:16:16;;;;;;;3.50;1.90;;;;;;;26.08;72.69;96805.88;6128355;23;20007;-82
2023/09/05 08:18:42;;;;;;;2.97;1.80;;;;;;;26.47;67.54;96803.28;6153570;23;20009;-82
2023/09/05 08:21:07;;;;;;;4.65;2.00;;;;;;;26.32;66.25;96809.25;6129232;23;20017;-82
2023/09/05 08:23:33;;;;;;;4.38;2.00;;;;;;;26.87;63.10;96810.38;6129297;23;20016;-82
2023/09/05 08:25:59;;;;;;;3.25;1.90;;;;;;;26.73;63.33;96801.81;6152737;23;20017;-82
2023/09/05 08:28:26;;;;;;;7.47;2.40;;;;;;;26.01;64.82;96814.13;6129876;23;20457;-81
2023/09/05 08:31:14;;;;;;;4.93;1.90;;;;;;;26.68;64.32;96799.84;6129614;23;20013;-82
2023/09/05 08:33:39;;;;;;;4.75;2.10;;;;;;;26.76;62.86;96788.66;6179854;23;20024;-82
2023/09/05 08:36:06;;;;;;;3.75;1.90;;;;;;;27.38;59.71;96792.16;6152687;23;20009;-82
2023/09/05 08:38:32;;;;;;;4.43;2.08;;;;;;;27.06;58.45;96800.09;6153613;23;20070;-82
2023/09/05 08:41:01;;;;;;;5.05;2.45;;;;;;;26.48;62.19;96819.25;6153698;23;20005;-82
2023/09/05 08:43:27;;;;;;;4.28;1.95;;;;;;;25.69;63.58;96800.34;6153445;23;20008;-82
2023/09/05 08:45:54;;;;;;;4.00;2.00;;;;;;;25.75;66.73;96798.53;6127179;23;20005;-82
2023/09/05 08:48:20;;;;;;;4.10;2.00;;;;;;;26.75;62.34;96788.88;6151432;23;20521;-82
2023/09/05 08:50:46;;;;;;;4.78;1.85;;;;;;;26.17;66.53;96793.66;6128435;23;20049;-82
2023/09/05 08:53:15;;;;;;;4.00;1.83;;;;;;;26.27;65.81;96809.19;6179272;23;20389;-82
2023/09/05 08:55:43;;;;;;;4.25;2.10;;;;;;;26.54;62.99;96791.28;6128764;23;20028;-82
2023/09/05 08:58:12;;;;;;;4.63;1.85;;;;;;;27.01;59.40;96774.66;6128637;23;20009;-82
2023/09/05 09:00:38;;;;;;;4.63;2.10;;;;;;;28.23;56.83;96777.03;6154203;23;20769;-82
2023/09/05 09:03:06;;;;;;;3.72;1.77;;;;;;;28.48;53.90;96787.28;6153721;23;20001;-82
2023/09/05 09:05:33;;;;;;;2.67;1.60;;;;;;;28.84;52.86;96777.50;6129082;23;20087;-82
2023/09/05 09:07:59;;;;;;;3.85;1.90;;;;;;;28.64;52.21;96777.38;6127716;23;20056;-82
2023/09/05 09:10:24;;;;;;;4.60;2.20;;;;;;;28.39;51.76;96786.94;6128882;23;20005;-82
2023/09/05 09:12:55;;;;;;;4.95;1.80;;;;;;;27.34;55.14;96786.44;6129432;23;20016;-82
2023/09/05 09:15:25;;;;;;;6.47;2.13;;;;;;;27.68;57.53;96776.25;6153300;23;20066;-81
2023/09/05 09:17:52;;;;;;;3.58;1.80;;;;;;;27.21;56.63;96779.53;6128405;23;20480;-82
2023/09/05 09:20:19;;;;;;;4.38;1.70;;;;;;;28.08;54.64;96779.63;6128719;23;20016;-82
2023/09/05 09:22:50;;;;;;;3.25;1.75;;;;;;;28.97;52.65;96778.09;6128540;23;20024;-82
2023/09/05 09:25:22;;;;;;;4.00;1.75;;;;;;;26.66;57.71;96793.91;6128159;23;20087;-82
2023/09/05 09:27:55;;;;;;;4.78;1.95;;;;;;;28.06;54.42;96776.38;6153380;23;20004;-82
2023/09/05 09:30:24;;;;;;;;;;;;;;;27.93;54.11;96786.56;6154332;23;20008;-82
2023/09/05 09:32:51;;;;;;;3.95;1.95;;;;;;;27.70;57.53;96784.94;6180082;23;19931;-82
2023/09/05 09:35:21;;;;;;;4.60;1.85;;;;;;;28.06;55.41;96782.59;6128697;23;20005;-82
2023/09/05 09:37:49;;;;;;;4.05;1.70;;;;;;;28.68;51.56;96781.19;6128406;23;20334;-82
2023/09/05 09:40:16;;;;;;;3.35;1.77;;;;;;;27.69;56.57;96777.88;6128743;23;20016;-82
2023/09/05 09:42:46;;;;;;;2.63;1.40;;;;;;;28.16;54.57;96771.84;6128454;23;20012;-82
2023/09/05 09:45:12;;;;;;;2.50;1.63;;;;;;;28.34;53.05;96770.66;6128289;23;20016;-82
2023/09/05 09:47:47;;;;;;;2.72;1.55;;;;;;;28.29;53.52;96775.19;6152866;23;20009;-81
2023/09/05 09:50:13;;;;;;;3.45;1.90;;;;;;;27.82;54.21;96767.78;6128919;23;20005;-82
2023/09/05 09:52:43;;;;;;;4.28;1.80;;;;;;;29.00;53.50;96754.03;6152693;23;20020;-82
2023/09/05 09:55:11;;;;;;;3.75;1.50;;;;;;;29.77;51.39;96749.66;6153028;23;20017;-82
2023/09/05 09:57:46;;;;;;;3.13;1.67;;;;;;;28.58;52.23;96754.06;6128730;23;20005;-82
2023/09/05 10:00:18;;;;;;;2.88;1.75;;;;;;;29.34;50.99;96754.44;6129240;23;20009;-82
2023/09/05 10:02:46;;;;;;;4.05;1.42;;;;;;;30.11;49.74;96761.91;6154197;23;20012;-82
2023/09/05 10:05:15;;;;;;;3.00;1.48;;;;;;;29.50;49.19;96757.19;6129554;23;20084;-82
2023/09/05 10:07:43;;;;;;;4.05;1.50;;;;;;;28.94;51.52;96762.38;6130004;23;20005;-83
2023/09/05 10:10:15;;;;;;;3.38;1.63;;;;;;;30.30;47.92;96744.03;6155369;23;20008;-83
2023/09/05 10:12:45;;;;;;;2.63;1.50;;;;;;;29.67;48.38;96746.94;6130491;23;20009;-82
2023/09/05 10:15:15;;;;;;;2.70;1.50;;;;;;;29.89;48.84;96754.03;6155217;23;20001;-82
2023/09/05 10:17:42;;;;;;;3.03;1.58;;;;;;;29.28;50.04;96746.56;6130808;23;20009;-82
2023/09/05 10:20:09;;;;;;;4.22;1.70;;;;;;;30.53;48.58;96739.91;6130436;23;20005;-82
2023/09/05 10:22:39;;;;;;;3.10;2.00;;;;;;;31.70;47.21;96734.03;6130734;23;20008;-82
2023/09/05 10:25:07;;;;;;;3.30;1.52;;;;;;;30.76;45.74;96735.81;6155054;23;20075;-82
2023/09/05 10:27:33;;;;;;;3.38;1.73;;;;;;;31.62;44.00;96729.19;6153445;23;20016;-82
2023/09/05 10:29:59;;;;;;;4.05;1.67;;;;;;;31.50;44.73;96722.47;6155360;23;20013;-83
2023/09/05 10:32:25;;;;;;;2.58;1.30;;;;;;;32.79;44.50;96723.84;6130199;23;20438;-83
2023/09/05 10:35:02;;;;;;;5.55;1.90;;;;;;;32.08;44.71;96722.63;6180271;23;20009;-82
2023/09/05 10:37:34;;;;;;;4.28;1.98;;;;;;;33.26;45.14;96711.28;6129790;23;20023;-83
2023/09/05 10:40:10;;;;;;;2.87;1.80;;;;;;;33.38;44.45;96700.78;6155946;23;20009;-83
2023/09/05 10:42:49;;;;;;;2.35;1.77;;;;;;;31.62;46.49;96706.63;6128961;23;20459;-83
2023/09/05 10:45:17;;;;;;;5.75;2.20;;;;;;;31.93;47.61;96704.53;6130937;23;20017;-83
2023/09/05 10:47:53;;;;;;;3.28;1.77;;;;;;;32.21;47.62;96707.53;6155459;23;19997;-82
2023/09/05 10:50:20;;;;;;;3.47;2.03;;;;;;;32.54;45.56;96709.41;6130449;23;20071;-82
2023/09/05 10:53:12;;;;;;;5.07;1.75;;;;;;;32.57;44.59;96703.38;6155123;23;20040;-83
2023/09/05 10:55:46;;;;;;;2.88;1.75;;;;;;;31.80;47.01;96713.31;6127591;23;20083;-82
2023/09/05 10:58:42;;;;;;;4.07;2.03;;;;;;;31.26;50.07;96711.44;6130795;23;20005;-83
2023/09/05 11:01:31;;;;;;;4.97;2.08;;;;;;;31.59;47.87;96708.00;6155690;23;19994;-82
2023/09/05 11:04:07;;;;;;;5.13;2.20;;;;;;;31.44;47.58;96699.94;6130522;23;20005;-82
2023/09/05 11:06:37;;;;;;;5.65;2.15;;;;;;;31.85;48.57;96696.94;6155866;23;19997;-81
2023/09/05 11:09:04;;;;;;;4.95;2.40;;;;;;;33.51;45.13;96700.06;6130803;23;20448;-82
2023/09/05 11:11:30;;;;;;;18.20;10.63;;;;;;;33.04;45.92;96690.88;6135454;23;20012;-82
2023/09/05 11:13:57;;;;;;;4.35;1.95;;;;;;;32.01;46.01;96695.75;6131643;23;20009;-82
2023/09/05 11:16:24;;;;;;;4.57;1.98;;;;;;;32.76;46.37;96691.72;6129671;23;20009;-81
2023/09/05 11:18:56;;;;;;;6.40;2.67;;;;;;;32.26;45.81;96697.44;6131193;23;20529;-82
2023/09/05 11:21:23;;;;;;;6.00;2.95;;;;;;;33.26;44.13;96698.47;6129826;23;20016;-82
2023/09/05 11:23:53;;;;;;;3.15;1.95;;;;;;;33.39;44.07;96696.94;6129810;23;20071;-82
2023/09/05 11:26:19;;;;;;;6.57;1.88;;;;;;;33.11;44.62;96700.63;6129860;23;20001;-82
2023/09/05 11:28:48;;;;;;;3.47;1.90;;;;;;;32.29;46.33;96688.66;6130574;23;20084;-82
2023/09/05 11:31:15;;;;;;;4.15;1.98;;;;;;;33.38;43.78;96687.16;6130133;23;20318;-82